KBAM/BAM METAR and TAF weather

Enter ICAO airport designator
Station Type Date Time Source
KBAM METAR 2018/04/20 08:35 UTC NOAA

KBAM 200835Z AUTO 00000KT 10SM CLR 05/01 A3006 RMK AO1


Station Type Date Time Source
KBAM Decoded METAR 2018/04/20 08:35 UTC NOAA

Station name not available
Apr 20, 2018 - 04:35 AM EDT / 2018.04.20 0835 UTC
Wind: Calm:0
Visibility: 10 mile(s):0
Sky conditions: clear
Temperature: 41 F (5 C)
Dew Point: 33 F (1 C)
Relative Humidity: 75%
Pressure (altimeter): 30.06 in. Hg (1017 hPa)
ob: KBAM 200835Z AUTO 00000KT 10SM CLR 05/01 A3006 RMK AO1
cycle: 8

Station Type Date Time Source
KBAM TAF UTC NOAA

Error!


Example: see airport list